CheckWX is a tool to help pilots better visualize weather data.  It is not intended as a substitute for an official pre-flight weather briefing.

20:33:23 UTC

DAAP TAF
Illizi Takhamalt Airport
Illizi, Algeria
TAF DAAP 221700Z 2218/2303 30014KT CAVOK BECMG 2218/2222 VRB02KT

Mar-22@
18:00 UTC

Mar-22 @ 18:00 UTC

Mar-23@
03:00 UTC

Mar-23 @ 03:00 UTC

TAF DAAP 221700Z 2218/2303 30014KT CAVOK
Wind
  • 300° at 14 KTS
Conditions
No significant weather
Cloud Levels
  • No significant clouds

Mar-22@
18:00 UTC

Mar-22 @ 18:00 UTC

Mar-23@
03:00 UTC

Mar-23 @ 03:00 UTC

BECMG 2218/2222 VRB02KT

Becoming

Becoming Conditions expected by Fri, Mar 22, 2019 @ 22:00 UTC

Wind
  • Variable at 2 KTS
Conditions
No significant weather
Cloud Levels
  • No significant clouds